• Join FlightAware (Why Join?)
  • Login
  • US Flag 
06:22PM EDT


 

Airport Tracker/Info


-or-


 

Live Flight TrackerFlight Track Log ✈ EJA941 ✈ 22-Jun-2013 ✈ KRNO - KPHX

Flight Track Log - Related Links

Times and Time Zones

All times are in EDT time to prevent confusion due to time zone crossing. See the EJA941 flight status page for this flight to view local times or setup timezone preferences in your user account.

Time Position Orientation Groundspeed Altitude Reporting Facility
EDT Latitude Longitude Course Direction KTS MPH feet Rate Location/Type
03:47PM 39.3833 -119.7667 180° South 286 329 9,100  Level Northern Cal TRACON
03:48PM 39.2925 -119.7672 180° South 298 343 11,200 1,500 Climbing Oakland Center
03:49PM 39.1992 -119.7642 179° South 315 362 12,500 1,500 Climbing Oakland Center
03:50PM 39.0711 -119.7514 176° South 372 428 14,300 1,620 Climbing Oakland Center
03:51PM 38.9639 -119.7308 172° South 386 444 15,900 1,500 Climbing Oakland Center
03:52PM 38.8564 -119.7250 178° South 390 449 17,400 1,440 Climbing Oakland Center
03:53PM 38.7486 -119.7519 191° South 395 455 18,900 1,800 Climbing Oakland Center
03:54PM 38.6397 -119.7411 176° South 397 457 21,200 1,980 Climbing Oakland Center
03:55PM 38.5333 -119.7203 171° South 389 448 23,000 1,020 Climbing Oakland Center
03:56PM 38.4169 -119.6944 170° South 417 480 23,300 960 Climbing Oakland Center
03:57PM 38.2731 -119.6633 170° South 444 511 25,000 1,560 Climbing Oakland Center
03:58PM 38.1492 -119.6381 171° South 447 514 26,500 1,440 Climbing Oakland Center
03:59PM 38.0247 -119.6089 170° South 450 518 28,000 1,200 Climbing Oakland Center
04:00PM 37.9222 -119.5058 142° Southeast 470 541 29,000 780 Climbing Oakland Center
04:01PM 37.8600 -119.3456 116° Southeast 499 574 29,600 1,080 Climbing Oakland Center
04:02PM 37.7986 -119.1861 116° Southeast 504 580 31,300 1,560 Climbing Oakland Center
04:03PM 37.7361 -119.0264 116° Southeast 506 582 32,800 960 Climbing Oakland Center
04:04PM 37.6725 -118.8647 116° Southeast 510 587 33,300 960 Climbing Oakland Center
04:05PM 37.6053 -118.6981 117° Southeast 528 608 34,800 1,440 Climbing Oakland Center
04:06PM 37.5397 -118.5344 117° Southeast 528 608 36,300 1,620 Climbing Oakland Center
04:07PM 37.4606 -118.3378 117° Southeast 527 606 38,100 1,560 Climbing Oakland Center
04:08PM 37.3961 -118.1775 117° Southeast 520 598 39,600 1,320 Climbing Oakland Center
04:09PM 37.3308 -118.0181 117° Southeast 516 594 40,900 660 Climbing Oakland Center
04:10PM 37.2647 -117.8567 117° Southeast 520 598 41,000  Climbing Oakland Center
04:11PM 37.1944 -117.6875 118° Southeast 542 624 41,000  Level Oakland Center
04:12PM 37.1239 -117.5172 117° Southeast 550 633 41,000  Level Oakland Center
04:13PM 37.0669 -117.3792 117° Southeast 554 638 41,000  Level Los Angeles Center
04:14PM 36.9964 -117.2114 118° Southeast 550 633 41,000  Level Los Angeles Center
04:15PM 36.9256 -117.0425 118° Southeast 551 634 41,000  Level Los Angeles Center
04:16PM 36.8539 -116.8728 118° Southeast 554 638 41,000  Level Los Angeles Center
04:17PM 36.7678 -116.6661 117° Southeast 559 643 41,000  Level Los Angeles Center
04:18PM 36.6953 -116.4939 118° Southeast 563 648 41,000  Level Los Angeles Center
04:19PM 36.6236 -116.3214 117° Southeast 562 647 41,000  Level Los Angeles Center
04:20PM 36.5356 -116.1156 118° Southeast 562 647 41,000  Level Los Angeles Center
04:21PM 36.4636 -115.9417 117° Southeast 565 650 41,000  Level Los Angeles Center
04:23PM 36.3839 -115.7583 118° Southeast 564 649 41,000  Level Los Angeles Center
04:24PM 36.3106 -115.5886 118° Southeast 569 655 41,000 -120 Level Los Angeles Center
04:25PM 36.2267 -115.3897 118° Southeast 576 663 40,800 -840 Descending Los Angeles Center
04:26PM 36.1528 -115.2206 118° Southeast 564 649 39,300 -1,500 Descending Los Angeles Center
04:27PM 36.0786 -115.0514 118° Southeast 563 648 37,800 -1,140 Descending Los Angeles Center
04:28PM 36.0047 -114.8861 119° Southeast 554 638 37,000 -420 Descending Los Angeles Center
04:29PM 35.9244 -114.7242 121° Southeast 553 636 37,000  Level Los Angeles Center
04:30PM 35.8214 -114.5342 124° Southeast 554 638 37,000  Level Los Angeles Center
04:31PM 35.7372 -114.3753 123° Southeast 554 638 37,000  Level Los Angeles Center
04:32PM 35.6514 -114.2128 123° Southeast 554 638 37,000  Level Los Angeles Center
04:33PM 35.5686 -114.0550 123° Southeast 553 636 37,000 -900 Level Los Angeles Center
04:34PM 35.5017 -113.9322 124° Southeast 547 629 35,200 -2,580 Descending Los Angeles Center
04:35PM 35.4011 -113.7464 124° Southeast 550 633 31,700 -3,000 Descending Los Angeles Center
04:36PM 35.3175 -113.5933 124° Southeast 547 629 29,100 -1,320 Descending Los Angeles Center
04:37PM 35.2178 -113.4103 124° Southeast 546 628 29,000 -60 Descending Los Angeles Center
04:38PM 35.1514 -113.2897 124° Southeast 544 626 29,000  Level Los Angeles Center
04:39PM 35.0578 -113.1178 124° Southeast 507 583 29,000 -600 Level Los Angeles Center
04:40PM 34.9606 -112.9428 124° Southeast 454 522 27,700 -1,080 Descending Los Angeles Center
04:41PM 34.8939 -112.8214 124° Southeast 439 505 26,800 -960 Descending Los Angeles Center
04:42PM 34.8269 -112.7019 124° Southeast 431 496 25,800 -1,020 Descending Los Angeles Center
04:44PM 34.7356 -112.5378 124° Southeast 425 489 24,400 -1,080 Descending Albuquerque Center
04:45PM 34.6611 -112.4350 131° Southeast 413 475 23,200 -1,260 Descending Albuquerque Center
04:46PM 34.5739 -112.3553 143° Southeast 399 459 21,900 -1,380 Descending Albuquerque Center
04:47PM 34.4728 -112.2564 141° Southeast 394 453 20,400 -1,440 Descending Albuquerque Center
04:48PM 34.3769 -112.2119 159° South 378 435 19,000 -1,260 Descending Albuquerque Center
04:49PM 34.2783 -112.1864 168° South 368 423 17,900 -960 Descending Albuquerque Center
04:50PM 34.1894 -112.1631 168° South 337 388 17,100 -900 Descending Albuquerque Center
04:51PM 34.1000 -112.1397 168° South 332 382 16,100 -1,140 Descending Albuquerque Center
04:52PM 34.0128 -112.1175 168° South 325 374 14,800 -1,620 Descending Albuquerque Center
04:53PM 33.9122 -112.0914 168° South 310 357 12,800 -1,800 Descending Albuquerque Center
04:54PM 33.8325 -112.0714 168° South 299 344 11,200 -1,380 Descending Albuquerque Center
04:55PM 33.7547 -112.0528 169° South 286 329 10,000 -600 Descending Albuquerque Center
04:56PM 33.6767 -112.0392 172° South 285 328 10,000 -300 Level Albuquerque Center
04:57PM 33.6000 -112.0333 176° South 258 297 9,500 -1,140 Descending Phoenix TRACON
04:58PM 33.5500 -111.9833 140° Southeast 254 292 8,000 -1,320 Descending Phoenix TRACON
04:59PM 33.5333 -111.9167 107° East 250 288 7,100 -900 Descending Phoenix TRACON
05:00PM 33.5167 -111.8333 103° East 254 292 6,300 -1,200 Descending Phoenix TRACON
05:01PM 33.4667 -111.8167 164° South 216 249 4,700 -1,560 Descending Phoenix TRACON
05:02PM 33.4333 -111.8667 231° Southwest 198 228 3,400 -1,260 Descending Phoenix TRACON
05:03PM 33.4333 -111.9167 270° West 156 180 2,400 -900 Descending Phoenix TRACON
05:04PM 33.4333 -111.9667 270° West 145 167 1,800 -480 Descending Phoenix TRACON
05:05PM 33.4281 -112.0394 265° West 147 169 1,200 -360 Descending Albuquerque Center